createdAt,value
2018-12-24T00:02:29.925Z,99052.00
2018-12-24T00:05:19.707Z,99079.00
2018-12-24T00:08:01.651Z,99056.00
2018-12-24T00:10:51.262Z,99101.00
2018-12-24T00:13:33.854Z,99071.00
2018-12-24T00:16:23.480Z,99120.00
2018-12-24T00:19:06.053Z,99104.00
2018-12-24T00:21:55.611Z,99034.00
2018-12-24T00:24:37.938Z,99076.00
2018-12-24T00:27:27.507Z,99109.00
2018-12-24T00:30:09.569Z,99107.00
2018-12-24T00:35:58.424Z,99077.00
2018-12-24T00:38:40.563Z,99107.00
2018-12-24T00:44:40.975Z,99106.00
2018-12-24T00:47:51.158Z,99106.00
2018-12-24T00:50:40.779Z,99114.00
2018-12-24T00:53:22.587Z,99095.00
2018-12-24T00:56:31.093Z,99102.00
2018-12-24T00:59:13.532Z,99110.00
2018-12-24T01:05:11.364Z,99102.00
2018-12-24T01:08:00.967Z,99099.00
2018-12-24T01:10:42.950Z,99060.00
2018-12-24T01:13:32.589Z,99103.00
2018-12-24T01:16:15.098Z,99114.00
2018-12-24T01:19:04.661Z,99102.00
2018-12-24T01:21:46.754Z,99107.00
2018-12-24T01:24:36.334Z,99112.00
2018-12-24T01:27:18.553Z,99110.00
2018-12-24T01:33:16.363Z,99102.00
2018-12-24T01:36:05.983Z,99122.00
2018-12-24T01:38:48.510Z,99120.00
2018-12-24T01:41:38.065Z,99137.00
2018-12-24T01:44:20.768Z,99087.00
2018-12-24T01:47:10.443Z,99094.00
2018-12-24T01:49:52.659Z,99097.00
2018-12-24T01:52:42.261Z,99102.00
2018-12-24T01:55:24.449Z,99140.00
2018-12-24T01:58:14.044Z,99140.00
2018-12-24T02:00:56.516Z,99146.00
2018-12-24T02:03:46.164Z,99125.00
2018-12-24T02:06:28.607Z,99135.00
2018-12-24T02:09:18.246Z,99145.00
2018-12-24T02:12:07.863Z,99137.00
2018-12-24T02:14:50.251Z,99155.00
2018-12-24T02:17:39.803Z,99146.00
2018-12-24T02:20:22.437Z,99156.00
2018-12-24T02:23:12.013Z,99164.00
2018-12-24T02:25:54.697Z,99118.00
2018-12-24T02:28:44.288Z,99147.00
2018-12-24T02:31:26.903Z,99147.00
2018-12-24T02:34:16.611Z,99141.00
2018-12-24T02:36:58.448Z,99142.00
2018-12-24T02:39:48.044Z,99147.00
2018-12-24T02:42:37.811Z,99112.00
2018-12-24T02:45:20.166Z,99109.00
2018-12-24T02:48:28.813Z,99145.00
2018-12-24T02:51:10.860Z,99120.00
2018-12-24T02:54:00.459Z,99159.00
2018-12-24T02:56:42.197Z,99172.00
2018-12-24T02:59:31.730Z,99168.00
2018-12-24T03:02:14.295Z,99138.00
2018-12-24T03:08:31.851Z,99178.00
2018-12-24T03:11:03.619Z,99141.00
2018-12-24T03:17:01.101Z,99183.00
2018-12-24T03:19:50.704Z,99177.00
2018-12-24T03:22:33.062Z,99182.00
2018-12-24T03:25:22.628Z,99171.00
2018-12-24T03:28:12.219Z,99170.00
2018-12-24T03:30:54.014Z,99183.00
2018-12-24T03:33:43.578Z,99187.00
2018-12-24T03:36:26.261Z,99185.00
2018-12-24T03:42:24.216Z,99198.00
2018-12-24T03:45:13.762Z,99196.00
2018-12-24T03:47:55.536Z,99124.00
2018-12-24T03:50:45.128Z,99176.00
2018-12-24T03:53:27.346Z,99207.00
2018-12-24T03:56:17.001Z,99219.00
2018-12-24T03:58:58.999Z,99164.00
2018-12-24T04:01:48.623Z,99228.00
2018-12-24T04:04:31.050Z,99212.00
2018-12-24T04:07:20.669Z,99162.00
2018-12-24T04:10:03.480Z,99251.00
2018-12-24T04:12:55.426Z,99253.00
2018-12-24T04:15:45.190Z,99262.00
2018-12-24T04:18:27.716Z,99282.00
2018-12-24T04:21:17.361Z,99269.00
2018-12-24T04:23:59.676Z,99306.00
2018-12-24T04:26:49.228Z,99263.00
2018-12-24T04:29:38.817Z,99295.00
2018-12-24T04:32:21.502Z,99259.00
2018-12-24T04:35:11.099Z,99319.00
2018-12-24T04:37:53.695Z,99293.00
2018-12-24T04:43:51.178Z,99326.00
2018-12-24T04:46:40.777Z,99337.00
2018-12-24T04:49:23.031Z,99350.00
2018-12-24T04:52:12.662Z,99289.00
2018-12-24T04:54:54.887Z,99380.00
2018-12-24T05:00:51.787Z,99401.00
2018-12-24T05:03:41.362Z,99400.00
2018-12-24T05:06:23.870Z,99388.00
2018-12-24T05:09:13.399Z,99422.00
2018-12-24T05:11:56.059Z,99439.00
2018-12-24T05:14:45.963Z,99435.00
2018-12-24T05:17:27.762Z,99506.00
2018-12-24T05:20:17.493Z,99485.00
2018-12-24T05:22:59.739Z,99516.00
2018-12-24T05:25:49.368Z,99532.00
2018-12-24T05:28:31.870Z,99544.00
2018-12-24T05:31:21.443Z,99531.00
2018-12-24T05:34:03.421Z,99571.00
2018-12-24T05:36:53.048Z,99604.00
2018-12-24T05:39:35.336Z,99614.00
2018-12-24T05:45:19.230Z,99632.00
2018-12-24T05:48:08.874Z,99659.00
2018-12-24T05:50:58.592Z,99647.00
2018-12-24T05:53:41.043Z,99617.00
2018-12-24T05:56:30.651Z,99672.00
2018-12-24T05:59:13.219Z,99672.00
2018-12-24T06:05:03.462Z,99716.00
2018-12-24T06:07:53.162Z,99726.00
2018-12-24T06:10:35.467Z,99740.00
2018-12-24T06:13:25.106Z,99752.00
2018-12-24T06:16:07.316Z,99759.00
2018-12-24T06:18:56.975Z,99765.00
2018-12-24T06:21:39.409Z,99773.00
2018-12-24T06:24:28.984Z,99776.00
2018-12-24T06:27:11.416Z,99794.00
2018-12-24T06:30:01.464Z,99802.00
2018-12-24T06:32:44.144Z,99818.00
2018-12-24T06:39:02.795Z,99833.00
2018-12-24T06:41:52.522Z,99820.00
2018-12-24T06:44:42.302Z,99830.00
2018-12-24T06:47:26.910Z,99886.00
2018-12-24T06:50:16.484Z,99870.00
2018-12-24T06:52:58.903Z,99907.00
2018-12-24T06:58:51.355Z,99848.00
2018-12-24T07:01:41.121Z,99856.00
2018-12-24T07:04:23.907Z,99927.00
2018-12-24T07:07:13.514Z,99944.00
2018-12-24T07:09:55.711Z,99865.00
2018-12-24T07:12:38.364Z,99931.00
2018-12-24T07:18:38.234Z,99894.00
2018-12-24T07:21:28.528Z,99973.00
2018-12-24T07:24:11.144Z,99915.00
2018-12-24T07:27:01.155Z,99990.00
2018-12-24T07:29:43.332Z,99996.00
2018-12-24T07:32:32.950Z,99999.00
2018-12-24T07:35:15.510Z,99957.00
2018-12-24T07:38:05.090Z,100017.00
2018-12-24T07:40:47.675Z,100031.00
2018-12-24T07:43:37.224Z,99991.00
2018-12-24T07:46:19.891Z,100043.00
2018-12-24T07:49:09.440Z,100010.00
2018-12-24T07:51:51.674Z,100064.00
2018-12-24T07:57:29.490Z,100069.00
2018-12-24T08:00:19.082Z,100087.00
2018-12-24T08:03:01.404Z,100097.00
2018-12-24T08:05:51.054Z,100104.00
2018-12-24T08:08:33.116Z,100111.00
2018-12-24T08:11:15.701Z,100118.00
2018-12-24T08:14:05.328Z,100087.00
2018-12-24T08:16:47.731Z,100137.00
2018-12-24T08:19:37.406Z,100137.00
2018-12-24T08:22:19.629Z,100147.00
2018-12-24T08:25:09.193Z,100160.00
2018-12-24T08:27:51.129Z,100167.00
2018-12-24T08:30:40.748Z,100167.00
2018-12-24T08:33:22.632Z,100202.00
2018-12-24T08:36:12.167Z,100204.00
2018-12-24T08:38:54.606Z,100202.00
2018-12-24T08:41:44.282Z,100225.00
2018-12-24T08:44:26.325Z,100210.00
2018-12-24T08:47:16.064Z,100219.00
2018-12-24T08:49:58.116Z,100194.00
2018-12-24T08:52:47.746Z,100229.00
2018-12-24T08:55:29.772Z,100145.00
2018-12-24T08:58:19.341Z,100228.00
2018-12-24T09:01:01.721Z,100235.00
2018-12-24T09:03:53.029Z,100239.00
2018-12-24T09:06:35.879Z,100182.00
2018-12-24T09:09:25.576Z,100245.00
2018-12-24T09:12:07.558Z,100216.00
2018-12-24T09:17:58.091Z,100268.00
2018-12-24T09:20:52.628Z,100282.00
2018-12-24T09:23:31.181Z,100283.00
2018-12-24T09:26:20.926Z,100297.00
2018-12-24T09:29:03.106Z,100266.00
2018-12-24T09:31:52.711Z,100331.00
2018-12-24T09:34:34.483Z,100319.00
2018-12-24T09:37:23.989Z,100291.00
2018-12-24T09:40:06.886Z,100324.00
2018-12-24T09:42:56.535Z,100334.00
2018-12-24T09:45:46.090Z,100330.00
2018-12-24T09:48:35.688Z,100294.00
2018-12-24T09:51:28.067Z,100345.00
2018-12-24T09:54:09.799Z,100356.00
2018-12-24T09:56:59.316Z,100371.00
2018-12-24T09:59:41.761Z,100357.00
2018-12-24T10:02:37.750Z,100310.00
2018-12-24T10:05:22.148Z,100348.00
2018-12-24T10:11:23.317Z,100346.00
2018-12-24T10:14:12.882Z,100353.00
2018-12-24T10:16:55.126Z,100359.00
2018-12-24T10:19:45.160Z,100304.00
2018-12-24T10:22:27.375Z,100375.00
2018-12-24T10:25:37.076Z,100369.00
2018-12-24T10:28:19.236Z,100375.00
2018-12-24T10:31:08.939Z,100372.00
2018-12-24T10:33:51.888Z,100380.00
2018-12-24T10:37:00.563Z,100371.00
2018-12-24T10:39:42.651Z,100384.00
2018-12-24T10:42:32.260Z,100390.00
2018-12-24T10:45:16.705Z,100351.00
2018-12-24T10:48:05.587Z,100362.00
2018-12-24T10:50:48.059Z,100333.00
2018-12-24T10:53:40.308Z,100352.00
2018-12-24T10:56:22.960Z,100350.00
2018-12-24T11:02:20.514Z,100380.00
2018-12-24T11:05:10.474Z,100359.00
2018-12-24T11:07:54.301Z,100396.00
2018-12-24T11:10:36.842Z,100393.00
2018-12-24T11:16:35.015Z,100398.00
2018-12-24T11:19:47.153Z,100406.00
2018-12-24T11:22:29.684Z,100411.00
2018-12-24T11:25:21.250Z,100408.00
2018-12-24T11:31:46.510Z,100436.00
2018-12-24T11:37:24.097Z,100437.00
2018-12-24T11:40:16.902Z,100440.00
2018-12-24T11:42:59.616Z,100450.00
2018-12-24T11:45:52.364Z,100459.00
2018-12-24T11:48:38.181Z,100458.00
2018-12-24T11:54:36.200Z,100476.00
2018-12-24T11:57:26.238Z,100474.00
2018-12-24T12:00:18.015Z,100411.00
2018-12-24T12:02:59.908Z,100476.00
2018-12-24T12:05:53.996Z,100500.00
2018-12-24T12:08:37.226Z,100501.00
2018-12-24T12:11:21.043Z,100456.00
2018-12-24T12:14:11.241Z,100521.00
2018-12-24T12:16:53.747Z,100509.00
2018-12-24T12:19:43.682Z,100490.00
2018-12-24T12:22:26.094Z,100521.00
2018-12-24T12:25:16.081Z,100512.00
2018-12-24T12:28:00.179Z,100518.00
2018-12-24T12:33:58.534Z,100498.00
2018-12-24T12:36:52.766Z,100486.00
2018-12-24T12:39:36.828Z,100529.00
2018-12-24T12:42:28.474Z,100537.00
2018-12-24T12:45:11.268Z,100571.00
2018-12-24T12:48:00.780Z,100480.00
2018-12-24T12:50:50.521Z,100541.00
2018-12-24T12:53:33.095Z,100552.00
2018-12-24T12:59:33.614Z,100573.00
2018-12-24T13:02:23.185Z,100539.00
2018-12-24T13:05:06.531Z,100551.00
2018-12-24T13:10:50.487Z,100509.00
2018-12-24T13:14:00.625Z,100588.00
2018-12-24T13:16:50.733Z,100543.00
2018-12-24T13:19:32.559Z,100604.00
2018-12-24T13:22:23.049Z,100571.00
2018-12-24T13:25:05.508Z,100619.00
2018-12-24T13:27:56.891Z,100632.00
2018-12-24T13:33:53.974Z,100636.00
2018-12-24T13:36:43.713Z,100651.00
2018-12-24T13:39:27.073Z,100631.00
2018-12-24T13:42:35.726Z,100644.00
2018-12-24T13:45:23.312Z,100643.00
2018-12-24T13:48:12.875Z,100615.00
2018-12-24T13:50:55.307Z,100625.00
2018-12-24T13:53:44.882Z,100589.00
2018-12-24T13:56:27.946Z,100678.00
2018-12-24T14:02:20.768Z,100698.00
2018-12-24T14:08:02.393Z,100687.00
2018-12-24T14:10:44.468Z,100716.00
2018-12-24T14:13:34.076Z,100737.00
2018-12-24T14:16:17.839Z,100747.00
2018-12-24T14:22:04.175Z,100767.00
2018-12-24T14:24:53.779Z,100774.00
2018-12-24T14:28:03.058Z,100728.00
2018-12-24T14:30:45.038Z,100790.00
2018-12-24T14:33:36.734Z,100797.00
2018-12-24T14:36:18.458Z,100798.00
2018-12-24T14:39:08.333Z,100807.00
2018-12-24T14:41:50.054Z,100811.00
2018-12-24T14:44:39.610Z,100745.00
2018-12-24T14:47:21.482Z,100753.00
2018-12-24T14:50:11.083Z,100818.00
2018-12-24T14:52:53.724Z,100823.00
2018-12-24T14:55:43.286Z,100822.00
2018-12-24T14:58:25.919Z,100795.00
2018-12-24T15:01:34.849Z,100830.00
2018-12-24T15:04:17.361Z,100825.00
2018-12-24T15:10:09.259Z,100846.00
2018-12-24T15:12:51.677Z,100847.00
2018-12-24T15:15:41.296Z,100849.00
2018-12-24T15:18:24.276Z,100849.00
2018-12-24T15:21:14.335Z,100869.00
2018-12-24T15:23:58.789Z,100857.00
2018-12-24T15:26:49.538Z,100871.00
2018-12-24T15:29:32.911Z,100866.00
2018-12-24T15:32:22.782Z,100845.00
2018-12-24T15:35:05.561Z,100830.00
2018-12-24T15:40:57.970Z,100779.00
2018-12-24T15:43:48.655Z,100857.00
2018-12-24T15:46:31.208Z,100862.00
2018-12-24T15:49:21.255Z,100883.00
2018-12-24T15:52:06.523Z,100879.00
2018-12-24T15:54:56.139Z,100881.00
2018-12-24T15:57:37.927Z,100897.00
2018-12-24T16:00:27.536Z,100864.00
2018-12-24T16:03:17.129Z,100907.00
2018-12-24T16:06:48.148Z,100906.00
2018-12-24T16:09:30.983Z,100912.00
2018-12-24T16:12:13.193Z,100921.00
2018-12-24T16:15:22.134Z,100881.00
2018-12-24T16:18:15.482Z,100917.00
2018-12-24T16:21:05.982Z,100892.00
2018-12-24T16:23:48.650Z,100903.00
2018-12-24T16:26:31.046Z,100904.00
2018-12-24T16:29:21.611Z,100919.00
2018-12-24T16:32:04.615Z,100918.00
2018-12-24T16:34:56.479Z,100921.00
2018-12-24T16:37:38.548Z,100887.00
2018-12-24T16:40:47.157Z,100928.00
2018-12-24T16:43:29.154Z,100927.00
2018-12-24T16:46:18.761Z,100946.00
2018-12-24T16:49:01.331Z,100966.00
2018-12-24T16:51:52.498Z,100942.00
2018-12-24T16:54:35.746Z,100934.00
2018-12-24T16:57:25.396Z,100929.00
2018-12-24T17:00:08.851Z,100928.00
2018-12-24T17:06:06.622Z,100925.00
2018-12-24T17:08:56.196Z,100911.00
2018-12-24T17:11:39.993Z,100890.00
2018-12-24T17:14:50.554Z,100909.00
2018-12-24T17:17:33.220Z,100892.00
2018-12-24T17:23:31.547Z,100837.00
2018-12-24T17:29:30.343Z,100902.00
2018-12-24T17:32:40.747Z,100938.00
2018-12-24T17:35:30.539Z,100939.00
2018-12-24T17:41:28.075Z,100936.00
2018-12-24T17:44:18.098Z,100929.00
2018-12-24T17:47:00.999Z,100888.00
2018-12-24T17:50:09.592Z,100921.00
2018-12-24T17:52:52.289Z,100927.00
2018-12-24T17:56:21.642Z,100895.00
2018-12-24T17:59:06.330Z,100920.00
2018-12-24T18:01:58.522Z,100899.00
2018-12-24T18:04:43.468Z,100934.00
2018-12-24T18:07:34.009Z,100950.00
2018-12-24T18:10:16.726Z,100883.00
2018-12-24T18:12:59.120Z,100861.00
2018-12-24T18:15:49.042Z,100922.00
2018-12-24T18:18:32.561Z,100950.00
2018-12-24T18:21:24.227Z,100934.00
2018-12-24T18:24:06.431Z,100940.00
2018-12-24T18:27:19.344Z,100924.00
2018-12-24T18:30:01.939Z,100963.00
2018-12-24T18:32:52.604Z,100918.00
2018-12-24T18:35:35.402Z,100938.00
2018-12-24T18:38:29.375Z,100935.00
2018-12-24T18:41:12.437Z,100933.00
2018-12-24T18:44:04.608Z,100872.00
2018-12-24T18:46:48.432Z,100945.00
2018-12-24T18:49:38.181Z,100953.00
2018-12-24T18:52:20.591Z,100956.00
2018-12-24T18:55:10.309Z,100956.00
2018-12-24T18:57:53.068Z,100944.00
2018-12-24T19:00:54.990Z,100960.00
2018-12-24T19:06:56.370Z,100959.00
2018-12-24T19:09:46.258Z,100950.00
2018-12-24T19:12:30.825Z,100952.00
2018-12-24T19:15:20.478Z,100949.00
2018-12-24T19:18:04.340Z,100949.00
2018-12-24T19:24:02.620Z,100950.00
2018-12-24T19:26:52.613Z,100951.00
2018-12-24T19:29:42.781Z,100923.00
2018-12-24T19:32:26.060Z,100959.00
2018-12-24T19:35:36.162Z,100966.00
2018-12-24T19:38:21.617Z,100975.00
2018-12-24T19:41:13.877Z,100921.00
2018-12-24T19:43:56.744Z,100965.00
2018-12-24T19:49:53.810Z,100953.00
2018-12-24T19:53:04.831Z,100959.00
2018-12-24T19:56:01.030Z,100944.00
2018-12-24T20:02:11.844Z,100956.00
2018-12-24T20:05:14.173Z,100878.00
2018-12-24T20:08:35.602Z,100953.00
2018-12-24T20:11:09.773Z,100949.00
2018-12-24T20:14:02.937Z,100946.00
2018-12-24T20:16:53.551Z,100938.00
2018-12-24T20:19:46.664Z,100969.00
2018-12-24T20:22:33.880Z,100960.00
2018-12-24T20:25:42.923Z,100967.00
2018-12-24T20:28:27.105Z,100967.00
2018-12-24T20:31:46.551Z,100937.00
2018-12-24T20:34:28.834Z,100974.00
2018-12-24T20:37:21.241Z,100977.00
2018-12-24T20:40:06.909Z,100905.00
2018-12-24T20:42:56.711Z,100975.00
2018-12-24T20:45:46.514Z,100982.00
2018-12-24T20:48:56.851Z,100989.00
2018-12-24T20:51:39.601Z,100994.00
2018-12-24T20:54:31.458Z,100995.00
2018-12-24T20:57:14.544Z,101003.00
2018-12-24T21:00:16.862Z,100947.00
2018-12-24T21:02:48.269Z,101006.00
2018-12-24T21:05:38.304Z,100977.00
2018-12-24T21:08:29.812Z,101014.00
2018-12-24T21:11:12.167Z,100995.00
2018-12-24T21:14:22.651Z,101003.00
2018-12-24T21:17:05.533Z,101000.00
2018-12-24T21:20:14.222Z,100993.00
2018-12-24T21:22:56.972Z,100953.00
2018-12-24T21:25:46.586Z,101004.00
2018-12-24T21:28:29.175Z,100998.00
2018-12-24T21:31:20.671Z,100996.00
2018-12-24T21:34:03.135Z,100998.00
2018-12-24T21:36:52.430Z,101003.00
2018-12-24T21:42:54.541Z,100990.00
2018-12-24T21:45:41.418Z,100985.00
2018-12-24T21:48:24.221Z,100959.00
2018-12-24T21:54:09.978Z,100951.00
2018-12-24T21:56:41.487Z,100988.00
2018-12-24T21:59:20.027Z,100985.00
2018-12-24T22:01:50.702Z,100986.00
2018-12-24T22:04:25.007Z,100985.00
2018-12-24T22:06:56.081Z,100992.00
2018-12-24T22:09:30.087Z,100985.00
2018-12-24T22:12:03.963Z,100981.00
2018-12-24T22:14:36.554Z,100980.00
2018-12-24T22:17:12.370Z,100975.00
2018-12-24T22:19:50.271Z,100981.00
2018-12-24T22:22:28.282Z,100974.00
2018-12-24T22:25:04.690Z,100975.00
2018-12-24T22:27:40.009Z,100978.00
2018-12-24T22:30:19.397Z,100974.00
2018-12-24T22:32:57.793Z,100961.00
2018-12-24T22:35:29.391Z,100971.00
2018-12-24T22:38:04.475Z,100974.00
2018-12-24T22:40:36.226Z,100972.00
2018-12-24T22:43:09.174Z,100971.00
2018-12-24T22:45:42.326Z,100968.00
2018-12-24T22:48:15.659Z,100958.00
2018-12-24T22:50:46.370Z,100954.00
2018-12-24T22:53:21.714Z,100951.00
2018-12-24T22:55:53.586Z,100948.00
2018-12-24T22:58:24.585Z,100957.00
2018-12-24T23:00:56.703Z,100959.00
2018-12-24T23:03:30.209Z,100956.00
2018-12-24T23:06:01.211Z,100948.00
2018-12-24T23:08:33.063Z,100953.00
2018-12-24T23:11:03.903Z,100950.00
2018-12-24T23:13:35.545Z,100950.00
2018-12-24T23:16:06.997Z,100938.00
2018-12-24T23:18:39.249Z,100947.00
2018-12-24T23:21:10.162Z,100955.00
2018-12-24T23:23:40.714Z,100955.00
2018-12-24T23:26:11.402Z,100950.00
2018-12-24T23:28:45.831Z,100953.00
2018-12-24T23:31:16.486Z,100963.00
2018-12-24T23:33:47.357Z,100955.00
2018-12-24T23:36:18.850Z,100963.00
2018-12-24T23:38:52.485Z,100959.00
2018-12-24T23:41:23.054Z,100964.00
2018-12-24T23:43:53.905Z,100964.00
2018-12-24T23:46:26.672Z,100968.00
2018-12-24T23:48:58.993Z,100962.00
2018-12-24T23:51:29.575Z,100971.00
2018-12-24T23:54:02.889Z,100955.00
2018-12-24T23:56:34.270Z,100964.00
2018-12-24T23:59:05.157Z,100973.00
